Time;durP1;ratioP1;P1;durP2;ratioP2;P2;SDS_P1;SDS_P2;PMS_P1;PMS_P2;Temp;Humidity;BMP_temperature;BMP_pressure;BME280_temperature;BME280_humidity;BME280_pressure;Samples;Min_cycle;Max_cycle;Signal;HPM_P1;HPM_P2
2022/10/19 00:01:49;;;;;;;65.32;45.50;;;16.60;91.60;;;;;;5052776;28;20048;-67
2022/10/19 00:04:15;;;;;;;60.60;43.25;;;16.60;91.50;;;;;;5052670;28;20056;-67
2022/10/19 00:06:40;;;;;;;64.43;45.05;;;16.60;91.40;;;;;;5052657;28;20553;-67
2022/10/19 00:09:10;;;;;;;62.03;43.90;;;16.50;91.20;;;;;;5052512;28;20033;-67
2022/10/19 00:11:39;;;;;;;56.63;38.33;;;16.50;91.30;;;;;;5052512;28;20058;-66
2022/10/19 00:14:06;;;;;;;62.78;43.45;;;16.50;91.20;;;;;;5052340;28;20029;-67
2022/10/19 00:16:35;;;;;;;62.63;43.83;;;16.50;91.20;;;;;;5052679;28;20480;-67
2022/10/19 00:19:03;;;;;;;69.20;45.80;;;16.50;91.30;;;;;;5052510;28;20032;-67
2022/10/19 00:21:29;;;;;;;69.63;47.67;;;16.40;91.30;;;;;;5052203;28;20037;-67
2022/10/19 00:23:55;;;;;;;72.63;49.72;;;16.40;91.40;;;;;;5052533;28;20587;-67
2022/10/19 00:26:21;;;;;;;61.22;44.28;;;16.40;91.50;;;;;;5055832;28;20064;-67
2022/10/19 00:28:46;;;;;;;57.25;39.78;;;16.40;91.40;;;;;;5056219;28;20048;-67
2022/10/19 00:31:15;;;;;;;52.47;38.75;;;16.40;91.20;;;;;;5056274;28;20037;-66
2022/10/19 00:33:45;;;;;;;46.25;37.03;;;16.30;91.00;;;;;;5056538;28;20116;-67
2022/10/19 00:36:28;;;;;;;48.45;36.38;;;16.30;90.80;;;;;;5056171;28;20497;-66
2022/10/19 00:38:55;;;;;;;43.95;37.13;;;16.30;90.80;;;;;;5056055;28;20045;-67
2022/10/19 00:41:22;;;;;;;47.00;35.63;;;16.20;90.70;;;;;;5055936;28;20037;-66
2022/10/19 00:43:50;;;;;;;45.47;35.70;;;16.20;90.70;;;;;;5055985;28;20544;-67
2022/10/19 00:46:16;;;;;;;43.33;35.05;;;16.20;90.60;;;;;;5055803;28;20033;-67
2022/10/19 00:48:42;;;;;;;43.60;33.80;;;16.20;90.60;;;;;;5055884;28;20033;-67
2022/10/19 00:51:08;;;;;;;43.42;34.17;;;16.10;90.60;;;;;;5055471;28;20037;-67
2022/10/19 00:53:35;;;;;;;41.45;33.83;;;16.10;90.60;;;;;;5055207;28;20726;-67
2022/10/19 00:56:06;;;;;;;38.83;31.45;;;16.10;90.60;;;;;;5055882;28;20033;-66
2022/10/19 00:58:32;;;;;;;41.90;33.17;;;16.00;90.40;;;;;;5054354;28;20033;-67
2022/10/19 01:01:02;;;;;;;38.42;31.95;;;16.00;90.50;;;;;;5053084;28;20033;-67
2022/10/19 01:03:27;;;;;;;44.80;34.03;;;15.90;90.50;;;;;;5053302;28;20033;-67
2022/10/19 01:05:54;;;;;;;45.92;34.58;;;15.90;90.50;;;;;;5055105;28;20421;-67
2022/10/19 01:08:20;;;;;;;41.58;33.28;;;15.90;90.60;;;;;;5055428;28;20104;-67
2022/10/19 01:11:19;;;;;;;46.60;32.45;;;16.00;90.60;;;;;;5055537;28;20112;-66
2022/10/19 01:13:48;;;;;;;43.80;34.35;;;16.00;90.50;;;;;;5055164;28;20041;-67
2022/10/19 01:16:50;;;;;;;41.55;32.75;;;15.90;90.60;;;;;;5055475;28;20545;-67
2022/10/19 01:19:22;;;;;;;44.17;33.00;;;15.90;90.70;;;;;;5055156;28;20563;-66
2022/10/19 01:21:52;;;;;;;41.78;32.40;;;15.90;90.70;;;;;;5054761;28;20032;-66
2022/10/19 01:24:25;;;;;;;42.15;32.00;;;15.80;90.70;;;;;;5055022;28;20033;-67
2022/10/19 01:27:11;;;;;;;42.40;31.42;;;15.80;90.80;;;;;;5054785;28;20384;-67
2022/10/19 01:29:58;;;;;;;42.85;30.23;;;15.80;90.70;;;;;;5054815;28;20048;-67
2022/10/19 01:32:43;;;;;;;36.58;30.70;;;15.80;90.70;;;;;;5054980;28;20045;-67
2022/10/19 01:35:24;;;;;;;39.33;31.33;;;15.80;90.60;;;;;;5054846;28;20029;-67
2022/10/19 01:38:25;;;;;;;43.03;32.53;;;15.80;90.50;;;;;;5054977;28;20033;-66
2022/10/19 01:41:08;;;;;;;37.60;30.00;;;15.70;90.50;;;;;;5054683;28;20532;-66
2022/10/19 01:43:48;;;;;;;38.65;30.50;;;15.70;90.40;;;;;;5054593;28;20045;-67
2022/10/19 01:46:33;;;;;;;36.33;30.50;;;15.70;90.40;;;;;;5054685;28;20040;-67
2022/10/19 01:49:08;;;;;;;40.50;32.55;;;15.70;90.40;;;;;;5054637;28;20040;-66
2022/10/19 01:51:40;;;;;;;42.60;33.78;;;15.70;90.40;;;;;;5054636;28;20052;-67
2022/10/19 01:54:10;;;;;;;37.60;31.42;;;15.70;90.40;;;;;;5054659;28;20104;-67
2022/10/19 01:56:41;;;;;;;38.53;31.73;;;15.70;90.30;;;;;;5054643;28;20048;-67
2022/10/19 01:59:09;;;;;;;37.58;30.75;;;15.70;90.40;;;;;;5054887;28;20040;-67
2022/10/19 02:01:38;;;;;;;40.00;30.23;;;15.60;90.30;;;;;;5054645;28;20029;-67
2022/10/19 02:04:04;;;;;;;37.10;30.35;;;15.60;90.30;;;;;;5054726;28;20095;-67
2022/10/19 02:06:30;;;;;;;39.30;30.67;;;15.60;90.30;;;;;;5054220;28;20033;-67
2022/10/19 02:08:56;;;;;;;37.70;30.40;;;15.50;90.40;;;;;;5054361;28;20041;-67
2022/10/19 02:11:22;;;;;;;39.35;30.52;;;15.50;90.40;;;;;;5054555;28;20042;-67
2022/10/19 02:13:57;;;;;;;35.40;28.63;;;15.50;90.40;;;;;;5054579;28;20385;-67
2022/10/19 02:16:28;;;;;;;33.47;28.35;;;15.50;90.40;;;;;;5054306;28;20128;-67
2022/10/19 02:18:55;;;;;;;36.00;29.10;;;15.40;90.40;;;;;;5053938;28;20037;-67
2022/10/19 02:21:21;;;;;;;44.35;30.25;;;15.40;90.40;;;;;;5054191;28;20374;-67
2022/10/19 02:23:47;;;;;;;36.28;30.63;;;15.40;90.40;;;;;;5053967;28;20069;-67
2022/10/19 02:26:12;;;;;;;35.88;29.00;;;15.40;90.40;;;;;;5053777;28;20064;-67
2022/10/19 02:28:38;;;;;;;32.97;28.83;;;15.40;90.40;;;;;;5053978;28;20033;-67
2022/10/19 02:31:04;;;;;;;36.00;28.30;;;15.40;90.30;;;;;;5053806;28;20401;-67
2022/10/19 02:33:30;;;;;;;34.08;28.90;;;15.40;90.20;;;;;;5053646;28;20047;-66
2022/10/19 02:35:57;;;;;;;36.05;29.27;;;15.40;90.30;;;;;;5054167;28;20033;-66
2022/10/19 02:38:24;;;;;;;39.58;29.58;;;15.40;90.20;;;;;;5053805;28;20029;-67
2022/10/19 02:41:11;;;;;;;39.60;28.73;;;15.30;90.30;;;;;;5053637;28;20413;-67
2022/10/19 02:43:40;;;;;;;36.10;28.77;;;15.30;90.30;;;;;;5053502;28;20401;-66
2022/10/19 02:46:26;;;;;;;37.65;28.27;;;15.30;90.40;;;;;;5053704;28;20029;-67
2022/10/19 02:48:54;;;;;;;33.17;26.35;;;15.30;90.40;;;;;;5053291;28;20551;-67
2022/10/19 02:51:30;;;;;;;31.70;26.70;;;15.30;90.30;;;;;;5053683;28;20033;-67
2022/10/19 02:53:56;;;;;;;38.45;28.05;;;15.20;90.40;;;;;;5053523;28;20080;-67
2022/10/19 02:56:22;;;;;;;35.70;27.08;;;15.20;90.40;;;;;;5053497;28;20057;-67
2022/10/19 02:58:48;;;;;;;37.75;26.60;;;15.30;90.40;;;;;;5053318;28;21128;-66
2022/10/19 03:01:13;;;;;;;30.70;27.08;;;15.20;90.40;;;;;;5053407;28;20428;-67
2022/10/19 03:03:39;;;;;;;36.83;27.15;;;15.20;90.40;;;;;;5053374;28;20041;-66
2022/10/19 03:06:05;;;;;;;37.38;27.23;;;15.20;90.40;;;;;;5053559;28;20100;-67
2022/10/19 03:08:30;;;;;;;33.75;28.63;;;15.20;90.40;;;;;;5053161;28;20460;-67
2022/10/19 03:10:59;;;;;;;34.83;29.23;;;15.20;90.40;;;;;;5053420;28;20501;-67
2022/10/19 03:13:25;;;;;;;40.72;29.05;;;15.20;90.60;;;;;;5053024;28;20049;-67
2022/10/19 03:15:51;;;;;;;37.80;29.85;;;15.20;90.60;;;;;;5053025;28;20501;-66
2022/10/19 03:18:16;;;;;;;37.92;29.08;;;15.20;90.70;;;;;;5053160;28;20052;-66
2022/10/19 03:20:42;;;;;;;41.28;30.13;;;15.20;90.70;;;;;;5053250;28;20037;-67
2022/10/19 03:23:07;;;;;;;35.83;29.02;;;15.20;90.60;;;;;;5053230;28;20051;-67
2022/10/19 03:25:33;;;;;;;35.67;29.73;;;15.20;90.70;;;;;;5053048;28;20032;-65
2022/10/19 03:27:59;;;;;;;39.08;29.25;;;15.10;90.70;;;;;;5052897;28;20033;-67
2022/10/19 03:30:24;;;;;;;39.47;29.35;;;15.20;90.90;;;;;;5052895;28;20029;-66
2022/10/19 03:32:50;;;;;;;35.75;28.10;;;15.10;90.80;;;;;;5052892;28;20043;-67
2022/10/19 03:35:16;;;;;;;37.63;28.10;;;15.10;90.90;;;;;;5053100;28;20393;-67
2022/10/19 03:37:42;;;;;;;37.70;28.42;;;15.10;90.80;;;;;;5053034;28;20388;-66
2022/10/19 03:40:08;;;;;;;34.25;27.30;;;15.10;90.80;;;;;;5052667;28;20041;-66
2022/10/19 03:42:33;;;;;;;36.10;26.77;;;15.10;90.70;;;;;;5052808;28;20064;-67
2022/10/19 03:44:59;;;;;;;36.88;26.90;;;15.10;90.60;;;;;;5052659;28;20075;-66
2022/10/19 03:47:25;;;;;;;33.00;25.95;;;15.10;90.60;;;;;;5053045;28;20037;-67
2022/10/19 03:49:51;;;;;;;34.13;27.23;;;15.10;90.50;;;;;;5052820;28;20036;-67
2022/10/19 03:52:17;;;;;;;41.33;27.40;;;15.00;90.50;;;;;;5052893;28;20044;-67
2022/10/19 03:54:44;;;;;;;32.13;26.00;;;15.00;90.50;;;;;;5052820;28;20049;-67
2022/10/19 03:57:09;;;;;;;32.40;26.13;;;15.00;90.40;;;;;;5052629;28;20393;-66
2022/10/19 03:59:35;;;;;;;31.17;26.83;;;15.00;90.40;;;;;;5053527;28;20040;-66
2022/10/19 04:02:01;;;;;;;33.20;25.17;;;15.00;90.50;;;;;;5056922;28;20039;-67
2022/10/19 04:04:27;;;;;;;36.53;26.65;;;14.90;90.40;;;;;;5056892;28;20028;-67
2022/10/19 04:06:52;;;;;;;39.17;25.67;;;14.90;90.40;;;;;;5056556;28;20037;-67
2022/10/19 04:09:20;;;;;;;38.20;25.58;;;14.90;90.50;;;;;;5056546;28;20025;-67
2022/10/19 04:11:46;;;;;;;33.28;26.90;;;14.90;90.60;;;;;;5056642;28;20045;-67
2022/10/19 04:14:14;;;;;;;41.00;27.15;;;14.90;90.50;;;;;;5056397;28;20056;-67
2022/10/19 04:16:39;;;;;;;38.15;29.60;;;14.90;90.50;;;;;;5056603;28;20033;-66
2022/10/19 04:19:05;;;;;;;48.20;29.85;;;14.90;90.60;;;;;;5056573;28;20041;-67
2022/10/19 04:21:34;;;;;;;43.58;29.25;;;14.90;90.60;;;;;;5056473;28;20041;-67
2022/10/19 04:24:08;;;;;;;45.15;30.02;;;14.90;90.80;;;;;;5056365;28;20525;-67
2022/10/19 04:26:38;;;;;;;39.92;29.52;;;14.90;90.70;;;;;;5056446;28;20047;-66
2022/10/19 04:29:04;;;;;;;43.22;28.92;;;14.80;90.70;;;;;;5056321;28;20078;-67
2022/10/19 04:31:30;;;;;;;37.25;28.58;;;14.80;90.70;;;;;;5056214;28;20037;-67
2022/10/19 04:33:56;;;;;;;41.30;28.65;;;14.80;90.70;;;;;;5056395;28;20094;-66
2022/10/19 04:36:22;;;;;;;36.28;28.83;;;14.90;90.70;;;;;;5056307;28;20033;-66
2022/10/19 04:38:48;;;;;;;36.50;28.80;;;14.80;90.70;;;;;;5056091;28;20064;-67
2022/10/19 04:41:16;;;;;;;39.78;28.23;;;14.80;90.70;;;;;;5056233;28;20037;-67
2022/10/19 04:43:45;;;;;;;37.05;28.63;;;14.80;90.70;;;;;;5056051;28;20120;-66
2022/10/19 04:46:14;;;;;;;37.10;27.50;;;14.80;90.80;;;;;;5055826;28;20061;-67
2022/10/19 04:48:41;;;;;;;39.00;27.88;;;14.80;90.90;;;;;;5055914;28;20033;-67
2022/10/19 04:51:07;;;;;;;37.92;27.45;;;14.80;90.80;;;;;;5055886;28;20079;-67
2022/10/19 04:53:33;;;;;;;38.13;28.08;;;14.80;90.70;;;;;;5055680;28;20037;-66
2022/10/19 04:55:59;;;;;;;41.30;27.17;;;14.70;90.70;;;;;;5055910;28;20041;-67
2022/10/19 04:58:26;;;;;;;38.20;28.67;;;14.70;90.70;;;;;;5055729;28;20037;-67
2022/10/19 05:00:51;;;;;;;43.17;28.40;;;14.70;90.80;;;;;;5055672;28;20031;-67
2022/10/19 05:03:17;;;;;;;40.83;27.90;;;14.70;90.90;;;;;;5055780;28;20125;-66
2022/10/19 05:05:43;;;;;;;38.83;27.13;;;14.60;90.90;;;;;;5055671;28;20032;-66
2022/10/19 05:08:09;;;;;;;41.90;28.20;;;14.70;90.90;;;;;;5055382;28;20068;-66
2022/10/19 05:10:36;;;;;;;38.95;29.02;;;14.70;90.90;;;;;;5055232;28;20037;-67
2022/10/19 05:13:02;;;;;;;37.70;27.83;;;14.70;90.80;;;;;;5055184;28;20588;-67
2022/10/19 05:15:28;;;;;;;38.67;26.20;;;14.60;90.90;;;;;;5055393;28;20036;-67
2022/10/19 05:17:54;;;;;;;37.35;27.35;;;14.60;90.90;;;;;;5055175;28;20033;-67
2022/10/19 05:20:20;;;;;;;37.97;27.67;;;14.60;91.10;;;;;;5055406;28;20041;-66
2022/10/19 05:22:46;;;;;;;39.33;27.23;;;14.60;91.30;;;;;;5055324;28;20044;-66
2022/10/19 05:25:12;;;;;;;35.17;26.38;;;14.60;91.30;;;;;;5055177;28;20036;-67
2022/10/19 05:27:38;;;;;;;35.78;26.00;;;14.60;91.10;;;;;;5055373;28;20478;-67
2022/10/19 05:30:05;;;;;;;29.35;23.98;;;14.60;91.30;;;;;;5054941;28;20037;-67
2022/10/19 05:32:31;;;;;;;42.28;26.10;;;14.60;91.20;;;;;;5054947;28;20049;-67
2022/10/19 05:34:57;;;;;;;41.05;25.33;;;14.60;91.10;;;;;;5054975;28;20129;-67
2022/10/19 05:37:24;;;;;;;38.42;25.85;;;14.60;91.20;;;;;;5054912;28;20033;-67
2022/10/19 05:39:50;;;;;;;43.47;27.45;;;14.60;91.10;;;;;;5054759;28;20057;-67
2022/10/19 05:42:16;;;;;;;39.38;25.23;;;14.60;91.00;;;;;;5054936;28;20049;-66
2022/10/19 05:44:41;;;;;;;36.50;25.85;;;14.60;90.90;;;;;;5054243;28;20033;-67
2022/10/19 05:47:07;;;;;;;39.92;25.95;;;14.60;90.70;;;;;;5054682;28;20108;-67
2022/10/19 05:49:33;;;;;;;44.50;24.83;;;14.50;90.60;;;;;;5053854;28;20060;-67
2022/10/19 05:51:59;;;;;;;43.17;25.00;;;14.60;90.60;;;;;;5054563;28;20049;-67
2022/10/19 05:54:24;;;;;;;45.33;25.40;;;14.50;90.50;;;;;;5054302;28;20437;-67
2022/10/19 05:56:50;;;;;;;39.15;24.65;;;14.50;90.50;;;;;;5054975;28;20037;-67
2022/10/19 05:59:17;;;;;;;48.95;25.75;;;14.50;90.60;;;;;;5054865;28;20108;-66
2022/10/19 06:01:44;;;;;;;47.47;26.73;;;14.50;90.60;;;;;;5054803;28;20037;-66
2022/10/19 06:04:12;;;;;;;50.45;28.23;;;14.50;90.70;;;;;;5054531;28;20421;-67
2022/10/19 06:06:38;;;;;;;60.22;29.80;;;14.50;90.80;;;;;;5053041;28;20041;-66
2022/10/19 06:09:04;;;;;;;63.13;29.58;;;14.50;90.90;;;;;;5054135;28;20382;-67
2022/10/19 06:11:35;;;;;;;51.70;30.92;;;14.60;90.90;;;;;;5053995;28;20041;-67
2022/10/19 06:14:03;;;;;;;64.05;30.38;;;14.60;90.90;;;;;;5054266;28;20044;-66
2022/10/19 06:16:33;;;;;;;59.67;29.98;;;14.60;90.90;;;;;;5054013;28;20029;-67
2022/10/19 06:18:59;;;;;;;52.45;30.42;;;14.50;90.90;;;;;;5036041;28;20048;-67
2022/10/19 06:21:29;;;;;;;61.13;29.60;;;14.50;91.00;;;;;;5054016;28;20036;-67
2022/10/19 06:23:57;;;;;;;59.28;31.02;;;14.60;91.00;;;;;;5052776;28;20021;-67
2022/10/19 06:26:24;;;;;;;64.15;29.77;;;14.60;91.00;;;;;;5053448;28;20029;-67
2022/10/19 06:28:50;;;;;;;50.38;28.77;;;14.60;91.10;;;;;;5053450;28;20037;-68
2022/10/19 06:31:16;;;;;;;46.70;27.80;;;14.60;91.10;;;;;;5052756;28;20052;-67
2022/10/19 06:33:44;;;;;;;52.08;28.20;;;14.60;91.20;;;;;;5014355;28;20049;-67
2022/10/19 06:36:30;;;;;;;46.83;27.38;;;14.60;91.50;;;;;;5035075;28;20120;-66
2022/10/19 06:38:56;;;;;;;38.55;26.13;;;14.70;91.70;;;;;;5052912;28;20048;-66
2022/10/19 06:41:22;;;;;;;46.58;26.88;;;14.80;92.10;;;;;;5052514;28;20037;-66
2022/10/19 06:43:52;;;;;;;42.20;25.42;;;14.80;92.50;;;;;;5052745;28;20369;-66
2022/10/19 06:46:20;;;;;;;31.85;20.77;;;14.80;92.50;;;;;;5052402;28;20035;-66
2022/10/19 06:48:54;;;;;;;30.35;20.30;;;14.90;92.50;;;;;;5051275;28;20075;-67
2022/10/19 06:51:20;;;;;;;32.40;20.02;;;14.90;92.60;;;;;;5052581;28;20064;-67
2022/10/19 06:53:46;;;;;;;23.50;18.50;;;15.00;92.70;;;;;;5052743;28;20036;-67
2022/10/19 06:56:12;;;;;;;28.27;18.42;;;15.10;93.00;;;;;;5052665;28;20025;-67
2022/10/19 06:58:39;;;;;;;24.02;15.23;;;15.20;93.20;;;;;;5052936;28;20041;-67
2022/10/19 07:01:06;;;;;;;16.58;14.23;;;15.30;93.20;;;;;;5052708;28;20037;-67
2022/10/19 07:03:32;;;;;;;22.70;13.48;;;15.30;93.10;;;;;;5052697;28;20112;-66
2022/10/19 07:06:00;;;;;;;14.60;12.65;;;15.50;93.10;;;;;;5051918;28;20033;-66
2022/10/19 07:08:28;;;;;;;22.67;16.10;;;15.60;93.00;;;;;;5052484;28;20060;-67
2022/10/19 07:10:59;;;;;;;48.10;22.20;;;15.70;93.00;;;;;;5052362;28;20032;-67
2022/10/19 07:13:26;;;;;;;37.85;20.35;;;15.70;92.70;;;;;;5051933;28;20045;-67
2022/10/19 07:16:05;;;;;;;42.42;21.58;;;15.80;92.50;;;;;;5052251;28;20039;-67
2022/10/19 07:18:34;;;;;;;38.78;20.80;;;15.90;92.30;;;;;;5051668;28;20061;-68
2022/10/19 07:21:03;;;;;;;37.08;21.50;;;15.90;92.30;;;;;;5052402;28;20033;-66
2022/10/19 07:23:31;;;;;;;33.47;20.55;;;16.00;92.40;;;;;;5052134;28;20040;-66
2022/10/19 07:26:02;;;;;;;41.05;21.35;;;16.00;92.30;;;;;;5051278;28;20075;-67
2022/10/19 07:28:29;;;;;;;57.42;24.33;;;16.10;92.40;;;;;;5051210;28;20252;-67
2022/10/19 07:30:55;;;;;;;45.25;24.00;;;16.10;92.50;;;;;;5051598;28;20028;-67
2022/10/19 07:33:21;;;;;;;43.50;24.10;;;16.20;92.40;;;;;;5051721;28;20069;-67
2022/10/19 07:35:47;;;;;;;46.38;22.30;;;16.20;92.40;;;;;;5052127;28;20037;-67
2022/10/19 07:38:12;;;;;;;31.73;23.15;;;16.30;92.40;;;;;;5051615;28;20044;-67
2022/10/19 07:40:38;;;;;;;30.80;22.63;;;16.30;92.50;;;;;;5051812;28;20131;-67
2022/10/19 07:43:04;;;;;;;31.52;22.23;;;16.30;92.60;;;;;;5050538;28;20185;-68
2022/10/19 07:45:30;;;;;;;30.05;20.67;;;16.40;92.60;;;;;;5050828;28;20033;-67
2022/10/19 07:47:58;;;;;;;29.45;20.20;;;16.40;92.60;;;;;;5051910;28;20414;-67
2022/10/19 07:50:26;;;;;;;27.13;21.08;;;16.50;92.50;;;;;;5052918;28;20068;-67
2022/10/19 07:52:51;;;;;;;27.77;20.42;;;16.60;92.40;;;;;;5052913;28;20045;-67
2022/10/19 07:55:18;;;;;;;30.50;19.63;;;16.70;92.40;;;;;;5053031;28;20037;-67
2022/10/19 07:57:48;;;;;;;35.67;21.92;;;16.70;92.30;;;;;;5052980;28;20037;-67
2022/10/19 08:00:15;;;;;;;31.25;19.60;;;16.80;92.40;;;;;;5051532;28;20029;-67
2022/10/19 08:02:42;;;;;;;30.63;19.70;;;16.80;92.50;;;;;;5052368;28;20075;-67
2022/10/19 08:05:07;;;;;;;30.90;19.52;;;16.90;92.60;;;;;;5052769;28;20055;-68
2022/10/19 08:07:33;;;;;;;25.35;18.67;;;17.00;92.60;;;;;;5052752;28;20033;-68
2022/10/19 08:09:59;;;;;;;25.95;17.48;;;17.10;92.60;;;;;;5052725;28;20036;-68
2022/10/19 08:12:25;;;;;;;23.90;17.08;;;17.20;92.50;;;;;;5052754;28;20049;-68
2022/10/19 08:14:52;;;;;;;23.95;17.48;;;17.20;92.40;;;;;;5052450;28;20556;-68
2022/10/19 08:17:18;;;;;;;25.75;16.98;;;17.30;92.50;;;;;;5050941;28;20056;-67
2022/10/19 08:19:45;;;;;;;25.88;16.48;;;17.40;92.40;;;;;;5051551;28;20463;-68
2022/10/19 08:22:11;;;;;;;23.33;18.00;;;17.40;92.20;;;;;;5052467;28;20163;-68
2022/10/19 08:24:36;;;;;;;25.88;17.65;;;17.50;92.40;;;;;;5051998;28;20067;-68
2022/10/19 08:27:02;;;;;;;27.95;17.55;;;17.60;92.40;;;;;;5052059;28;20525;-68
2022/10/19 08:29:28;;;;;;;25.25;16.10;;;17.70;92.40;;;;;;5052099;28;20036;-68
2022/10/19 08:31:54;;;;;;;25.52;17.05;;;17.70;92.20;;;;;;5052322;28;20039;-69
2022/10/19 08:34:19;;;;;;;23.02;15.02;;;17.80;92.20;;;;;;5052409;28;20116;-68
2022/10/19 08:36:45;;;;;;;30.75;17.05;;;17.90;92.20;;;;;;5052359;28;20041;-68
2022/10/19 08:39:12;;;;;;;22.65;13.40;;;18.00;92.10;;;;;;5035323;28;20053;-68
2022/10/19 08:42:01;;;;;;;24.85;14.93;;;18.10;91.80;;;;;;5052756;28;20037;-68
2022/10/19 08:44:48;;;;;;;23.15;15.18;;;18.20;91.30;;;;;;5052253;28;20044;-68
2022/10/19 08:47:35;;;;;;;21.35;13.90;;;18.20;91.20;;;;;;5055617;28;20104;-68
2022/10/19 08:50:13;;;;;;;20.63;14.15;;;18.30;91.30;;;;;;5056161;28;20030;-68
2022/10/19 08:52:40;;;;;;;23.02;15.55;;;18.40;91.50;;;;;;5055894;28;20553;-69
2022/10/19 08:55:12;;;;;;;29.80;16.65;;;18.40;91.40;;;;;;5056067;28;20079;-68
2022/10/19 08:57:56;;;;;;;25.45;14.63;;;18.60;91.60;;;;;;5056111;28;20498;-68
2022/10/19 09:00:42;;;;;;;22.90;14.25;;;18.60;91.20;;;;;;5056041;28;20037;-68
2022/10/19 09:03:34;;;;;;;22.33;13.82;;;18.70;90.70;;;;;;5056267;28;20376;-68
2022/10/19 09:06:00;;;;;;;;;;;18.90;89.70;;;;;;5056343;28;20497;-67
2022/10/19 09:08:26;;;;;;;15.73;12.27;;;18.90;89.50;;;;;;5055947;28;19940;-67
2022/10/19 09:10:53;;;;;;;17.10;13.07;;;18.90;90.30;;;;;;5056019;28;20374;-67
2022/10/19 09:13:35;;;;;;;23.58;12.32;;;19.00;90.60;;;;;;5055589;28;20052;-67
2022/10/19 09:16:02;;;;;;;20.52;13.10;;;19.10;90.50;;;;;;5055571;28;20524;-67
2022/10/19 09:18:30;;;;;;;17.17;11.60;;;19.20;90.20;;;;;;5055543;28;20037;-68
2022/10/19 09:21:12;;;;;;;17.92;11.43;;;19.30;90.00;;;;;;5055597;28;20402;-67
2022/10/19 09:23:39;;;;;;;18.80;12.75;;;19.40;89.70;;;;;;5055521;28;20062;-68
2022/10/19 09:26:17;;;;;;;20.02;12.10;;;19.40;88.80;;;;;;5055325;28;20111;-69
2022/10/19 09:29:06;;;;;;;17.80;11.73;;;19.50;88.60;;;;;;5055645;28;20116;-69
2022/10/19 09:31:42;;;;;;;19.02;11.93;;;19.60;89.30;;;;;;5055600;28;20079;-69
2022/10/19 09:34:13;;;;;;;18.77;11.80;;;19.70;88.00;;;;;;5055643;28;20039;-69
2022/10/19 09:36:48;;;;;;;21.25;12.05;;;19.80;87.50;;;;;;5055093;28;20025;-69
2022/10/19 09:39:13;;;;;;;21.30;9.77;;;19.90;87.70;;;;;;5055115;28;20052;-69
2022/10/19 09:41:58;;;;;;;17.50;9.43;;;19.90;87.20;;;;;;5055102;28;20033;-69
2022/10/19 09:44:25;;;;;;;12.93;8.40;;;20.00;85.40;;;;;;5055071;28;20041;-69
2022/10/19 09:47:04;;;;;;;12.68;8.38;;;20.10;84.40;;;;;;5054794;28;20432;-67
2022/10/19 09:49:45;;;;;;;16.67;8.27;;;20.10;81.00;;;;;;5055012;28;20091;-68
2022/10/19 09:52:34;;;;;;;11.85;8.20;;;20.20;81.00;;;;;;5055308;28;20084;-67
2022/10/19 09:55:27;;;;;;;12.50;8.68;;;20.30;81.20;;;;;;5054956;28;20155;-69
2022/10/19 09:58:10;;;;;;;9.63;7.45;;;20.30;81.50;;;;;;5053739;28;20120;-68
2022/10/19 10:00:41;;;;;;;;;;;20.40;80.20;;;;;;5055024;28;20113;-69
2022/10/19 10:03:20;;;;;;;12.43;7.70;;;20.50;78.50;;;;;;5054636;28;20018;-69
2022/10/19 10:05:47;;;;;;;10.75;8.30;;;20.50;76.80;;;;;;5054334;28;20072;-69
2022/10/19 10:08:16;;;;;;;13.15;7.43;;;20.60;77.50;;;;;;5054607;28;20083;-69
2022/10/19 10:10:52;;;;;;;12.65;7.57;;;20.70;77.70;;;;;;5054344;28;20056;-69
2022/10/19 10:13:20;;;;;;;14.52;8.27;;;20.70;78.00;;;;;;5054172;28;20397;-68
2022/10/19 10:15:56;;;;;;;18.08;7.68;;;20.90;76.40;;;;;;5054271;28;20036;-68
2022/10/19 10:18:24;;;;;;;14.07;7.38;;;21.00;76.70;;;;;;5054419;28;20029;-68
2022/10/19 10:21:01;;;;;;;12.45;7.30;;;21.10;76.00;;;;;;5054167;28;20032;-68
2022/10/19 10:23:32;;;;;;;11.15;7.35;;;21.10;75.80;;;;;;5054512;28;20466;-68
2022/10/19 10:25:59;;;;;;;13.48;8.23;;;21.20;75.30;;;;;;5053833;28;20032;-69
2022/10/19 10:28:27;;;;;;;11.88;8.00;;;21.30;75.70;;;;;;5054185;28;20037;-69
2022/10/19 10:31:05;;;;;;;12.65;7.10;;;21.30;74.10;;;;;;5053910;28;20037;-69
2022/10/19 10:33:35;;;;;;;12.00;8.35;;;21.40;73.90;;;;;;5053830;28;20033;-68
2022/10/19 10:36:04;;;;;;;12.20;8.73;;;21.40;72.10;;;;;;5053757;28;20033;-68
2022/10/19 10:38:35;;;;;;;10.80;8.27;;;21.40;74.50;;;;;;5053335;28;20037;-68
2022/10/19 10:41:11;;;;;;;33.22;18.55;;;21.40;76.60;;;;;;5053446;28;20045;-68
2022/10/19 10:43:50;;;;;;;19.50;10.43;;;21.40;75.00;;;;;;5053742;28;20494;-68
2022/10/19 10:46:20;;;;;;;10.73;7.43;;;21.50;77.20;;;;;;5053405;28;20041;-68
2022/10/19 10:48:55;;;;;;;20.27;7.70;;;21.50;75.80;;;;;;5053766;28;20111;-68
2022/10/19 10:51:44;;;;;;;13.00;8.18;;;21.60;76.00;;;;;;5053606;28;20032;-69
2022/10/19 10:54:21;;;;;;;13.30;7.65;;;21.70;72.60;;;;;;5053561;28;20041;-69
2022/10/19 10:57:05;;;;;;;11.32;7.53;;;21.70;73.70;;;;;;5053818;28;20041;-69
2022/10/19 11:00:01;;;;;;;10.65;7.85;;;21.70;74.30;;;;;;5053561;28;20067;-69
2022/10/19 11:02:45;;;;;;;13.95;7.30;;;21.80;73.90;;;;;;5048456;28;20422;-69
2022/10/19 11:05:28;;;;;;;11.48;6.93;;;21.80;72.20;;;;;;5053453;28;20401;-69
2022/10/19 11:08:05;;;;;;;11.45;7.43;;;21.80;71.70;;;;;;5052939;28;20037;-69
2022/10/19 11:10:40;;;;;;;9.07;7.25;;;21.90;72.30;;;;;;5052800;28;20033;-69
2022/10/19 11:13:20;;;;;;;15.73;7.68;;;22.00;72.10;;;;;;5052542;28;20045;-70
2022/10/19 11:15:55;;;;;;;15.00;7.60;;;22.00;71.90;;;;;;5053350;28;20083;-69
2022/10/19 11:18:28;;;;;;;16.65;7.43;;;22.00;73.30;;;;;;5053394;28;20033;-69
2022/10/19 11:21:11;;;;;;;14.05;6.78;;;22.10;73.00;;;;;;5053603;28;20123;-69
2022/10/19 11:24:04;;;;;;;9.88;6.95;;;22.10;71.90;;;;;;5053460;28;20036;-69
2022/10/19 11:26:37;;;;;;;12.13;6.55;;;22.20;70.60;;;;;;5051256;28;20041;-69
2022/10/19 11:29:32;;;;;;;12.88;6.47;;;22.20;69.20;;;;;;5051746;28;20508;-69
2022/10/19 11:31:58;;;;;;;12.05;6.60;;;22.20;70.70;;;;;;5052303;28;20405;-69
2022/10/19 11:35:02;;;;;;;12.95;6.32;;;22.30;70.60;;;;;;5051346;28;20036;-69
2022/10/19 11:37:40;;;;;;;16.40;6.47;;;22.30;70.90;;;;;;5020429;28;20033;-69
2022/10/19 11:40:24;;;;;;;11.35;6.32;;;22.30;68.50;;;;;;5052563;28;20055;-70
2022/10/19 11:43:05;;;;;;;12.73;6.57;;;22.30;68.60;;;;;;5052444;28;20083;-70
2022/10/19 11:46:07;;;;;;;14.80;6.32;;;22.30;69.80;;;;;;5052022;28;20112;-69
2022/10/19 11:48:47;;;;;;;12.48;5.93;;;22.40;68.40;;;;;;5034993;28;20037;-69
2022/10/19 11:51:42;;;;;;;13.75;6.55;;;22.40;68.30;;;;;;5052264;28;20478;-70
2022/10/19 11:54:26;;;;;;;10.82;5.95;;;22.40;67.50;;;;;;5052137;28;20572;-68
2022/10/19 11:57:21;;;;;;;9.98;6.25;;;22.50;66.40;;;;;;5052283;28;20037;-71
2022/10/19 12:00:01;;;;;;;9.98;5.82;;;22.50;65.70;;;;;;5052480;28;20098;-69
2022/10/19 12:02:45;;;;;;;11.40;5.90;;;22.50;67.70;;;;;;5052190;28;20418;-69
2022/10/19 12:05:34;;;;;;;10.82;6.60;;;22.60;68.50;;;;;;5052370;28;20037;-69
2022/10/19 12:08:08;;;;;;;10.43;5.85;;;22.60;68.60;;;;;;5052360;28;20055;-70
2022/10/19 12:10:52;;;;;;;13.43;5.82;;;22.70;68.30;;;;;;5052190;28;20087;-69
2022/10/19 12:13:22;;;;;;;10.30;5.15;;;22.70;69.70;;;;;;5052454;28;20045;-70
2022/10/19 12:15:54;;;;;;;6.90;6.10;;;22.80;66.30;;;;;;5052542;28;20116;-70
2022/10/19 12:18:19;;;;;;;9.65;5.90;;;22.80;66.40;;;;;;5051987;28;20037;-69
2022/10/19 12:20:50;;;;;;;14.23;5.90;;;22.80;65.70;;;;;;5053124;28;20032;-69
2022/10/19 12:23:36;;;;;;;12.13;5.57;;;22.80;65.10;;;;;;5056603;28;20538;-69
2022/10/19 12:26:09;;;;;;;12.25;5.88;;;22.90;67.10;;;;;;5056651;28;20083;-70
2022/10/19 12:28:35;;;;;;;;;;;22.90;66.90;;;;;;5055788;28;20055;-69
2022/10/19 12:31:03;;;;;;;9.73;5.70;;;22.90;66.30;;;;;;5055831;28;19943;-70
2022/10/19 12:33:46;;;;;;;9.93;6.10;;;22.90;65.70;;;;;;5055448;28;20094;-70
2022/10/19 12:36:49;;;;;;;11.95;5.90;;;23.00;65.40;;;;;;5055835;28;20439;-70
2022/10/19 12:39:30;;;;;;;10.48;7.07;;;23.00;66.60;;;;;;5055789;28;20049;-69
2022/10/19 12:42:14;;;;;;;11.30;6.70;;;23.00;67.40;;;;;;5055855;28;20060;-67
2022/10/19 12:45:06;;;;;;;13.55;6.63;;;23.10;66.90;;;;;;5056339;28;20044;-70
2022/10/19 12:47:32;;;;;;;12.70;6.85;;;23.10;66.30;;;;;;5056060;28;20029;-69
2022/10/19 12:49:59;;;;;;;12.93;6.57;;;23.10;66.50;;;;;;5055999;28;20086;-69
2022/10/19 12:52:44;;;;;;;8.90;6.03;;;23.20;66.70;;;;;;5055648;28;20493;-69